sensor_id;sensor_type;location;lat;lon;timestamp;P1;durP1;ratioP1;P2;durP2;ratioP2
21567;SDS011;10944;42.590;12.630;2023-04-24T00:01:47;11.43;;;4.32;;
21567;SDS011;10944;42.590;12.630;2023-04-24T00:04:13;8.25;;;3.67;;
21567;SDS011;10944;42.590;12.630;2023-04-24T00:06:41;8.75;;;4.20;;
21567;SDS011;10944;42.590;12.630;2023-04-24T00:09:08;8.60;;;4.00;;
21567;SDS011;10944;42.590;12.630;2023-04-24T00:11:35;9.98;;;5.00;;
21567;SDS011;10944;42.590;12.630;2023-04-24T00:14:01;9.00;;;4.20;;
21567;SDS011;10944;42.590;12.630;2023-04-24T00:16:27;12.15;;;4.30;;
21567;SDS011;10944;42.590;12.630;2023-04-24T00:18:53;11.90;;;4.25;;
21567;SDS011;10944;42.590;12.630;2023-04-24T00:21:19;11.85;;;3.90;;
21567;SDS011;10944;42.590;12.630;2023-04-24T00:23:45;8.68;;;3.60;;
21567;SDS011;10944;42.590;12.630;2023-04-24T00:26:12;9.80;;;3.80;;
21567;SDS011;10944;42.590;12.630;2023-04-24T00:28:38;8.50;;;4.15;;
21567;SDS011;10944;42.590;12.630;2023-04-24T00:31:04;10.57;;;4.28;;
21567;SDS011;10944;42.590;12.630;2023-04-24T00:33:29;9.38;;;3.75;;
21567;SDS011;10944;42.590;12.630;2023-04-24T00:35:55;8.38;;;3.55;;
21567;SDS011;10944;42.590;12.630;2023-04-24T00:38:21;9.45;;;3.65;;
21567;SDS011;10944;42.590;12.630;2023-04-24T00:40:47;9.75;;;3.83;;
21567;SDS011;10944;42.590;12.630;2023-04-24T00:43:15;7.50;;;3.83;;
21567;SDS011;10944;42.590;12.630;2023-04-24T00:45:41;10.13;;;4.07;;
21567;SDS011;10944;42.590;12.630;2023-04-24T00:48:07;12.50;;;3.53;;
21567;SDS011;10944;42.590;12.630;2023-04-24T00:50:33;13.63;;;3.80;;
21567;SDS011;10944;42.590;12.630;2023-04-24T00:53:00;14.52;;;3.70;;
21567;SDS011;10944;42.590;12.630;2023-04-24T00:55:26;14.20;;;4.07;;
21567;SDS011;10944;42.590;12.630;2023-04-24T00:57:52;13.13;;;4.10;;
21567;SDS011;10944;42.590;12.630;2023-04-24T01:00:18;12.05;;;4.10;;
21567;SDS011;10944;42.590;12.630;2023-04-24T01:02:44;13.50;;;3.90;;
21567;SDS011;10944;42.590;12.630;2023-04-24T01:05:13;11.82;;;3.88;;
21567;SDS011;10944;42.590;12.630;2023-04-24T01:07:43;15.30;;;3.95;;
21567;SDS011;10944;42.590;12.630;2023-04-24T01:10:11;16.23;;;4.03;;
21567;SDS011;10944;42.590;12.630;2023-04-24T01:12:37;14.88;;;4.18;;
21567;SDS011;10944;42.590;12.630;2023-04-24T01:15:04;13.68;;;4.13;;
21567;SDS011;10944;42.590;12.630;2023-04-24T01:17:31;12.98;;;3.80;;
21567;SDS011;10944;42.590;12.630;2023-04-24T01:19:58;12.48;;;3.70;;
21567;SDS011;10944;42.590;12.630;2023-04-24T01:22:25;16.10;;;4.20;;
21567;SDS011;10944;42.590;12.630;2023-04-24T01:24:51;11.52;;;3.97;;
21567;SDS011;10944;42.590;12.630;2023-04-24T01:27:18;15.30;;;4.00;;
21567;SDS011;10944;42.590;12.630;2023-04-24T01:29:44;11.07;;;3.80;;
21567;SDS011;10944;42.590;12.630;2023-04-24T01:32:10;13.45;;;3.80;;
21567;SDS011;10944;42.590;12.630;2023-04-24T01:34:36;14.45;;;3.78;;
21567;SDS011;10944;42.590;12.630;2023-04-24T01:37:02;13.55;;;4.47;;
21567;SDS011;10944;42.590;12.630;2023-04-24T01:39:30;14.50;;;4.28;;
21567;SDS011;10944;42.590;12.630;2023-04-24T01:41:55;13.70;;;3.70;;
21567;SDS011;10944;42.590;12.630;2023-04-24T01:44:22;12.65;;;3.60;;
21567;SDS011;10944;42.590;12.630;2023-04-24T01:46:48;16.02;;;3.60;;
21567;SDS011;10944;42.590;12.630;2023-04-24T01:49:13;17.02;;;3.60;;
21567;SDS011;10944;42.590;12.630;2023-04-24T01:51:39;14.02;;;3.75;;
21567;SDS011;10944;42.590;12.630;2023-04-24T01:54:05;19.35;;;3.95;;
21567;SDS011;10944;42.590;12.630;2023-04-24T01:56:31;14.90;;;3.33;;
21567;SDS011;10944;42.590;12.630;2023-04-24T01:58:59;12.35;;;2.90;;
21567;SDS011;10944;42.590;12.630;2023-04-24T02:01:27;10.75;;;3.70;;
21567;SDS011;10944;42.590;12.630;2023-04-24T02:03:57;14.70;;;3.92;;
21567;SDS011;10944;42.590;12.630;2023-04-24T02:06:23;12.60;;;3.63;;
21567;SDS011;10944;42.590;12.630;2023-04-24T02:08:49;16.55;;;3.97;;
21567;SDS011;10944;42.590;12.630;2023-04-24T02:11:14;15.70;;;3.42;;
21567;SDS011;10944;42.590;12.630;2023-04-24T02:13:40;11.18;;;3.70;;
21567;SDS011;10944;42.590;12.630;2023-04-24T02:16:07;16.27;;;4.28;;
21567;SDS011;10944;42.590;12.630;2023-04-24T02:18:33;15.05;;;4.07;;
21567;SDS011;10944;42.590;12.630;2023-04-24T02:20:59;11.57;;;3.83;;
21567;SDS011;10944;42.590;12.630;2023-04-24T02:23:24;12.25;;;3.83;;
21567;SDS011;10944;42.590;12.630;2023-04-24T02:25:52;9.82;;;4.00;;
21567;SDS011;10944;42.590;12.630;2023-04-24T02:28:18;17.33;;;4.60;;
21567;SDS011;10944;42.590;12.630;2023-04-24T02:30:44;12.65;;;4.18;;
21567;SDS011;10944;42.590;12.630;2023-04-24T02:33:10;17.80;;;4.25;;
21567;SDS011;10944;42.590;12.630;2023-04-24T02:35:36;12.57;;;4.05;;
21567;SDS011;10944;42.590;12.630;2023-04-24T02:38:02;11.93;;;3.67;;
21567;SDS011;10944;42.590;12.630;2023-04-24T02:40:28;10.60;;;4.00;;
21567;SDS011;10944;42.590;12.630;2023-04-24T02:42:54;14.55;;;3.75;;
21567;SDS011;10944;42.590;12.630;2023-04-24T02:45:20;13.52;;;4.47;;
21567;SDS011;10944;42.590;12.630;2023-04-24T02:47:46;16.05;;;3.80;;
21567;SDS011;10944;42.590;12.630;2023-04-24T02:50:11;9.73;;;3.47;;
21567;SDS011;10944;42.590;12.630;2023-04-24T02:52:37;12.50;;;3.53;;
21567;SDS011;10944;42.590;12.630;2023-04-24T02:55:03;10.60;;;4.22;;
21567;SDS011;10944;42.590;12.630;2023-04-24T02:57:30;14.23;;;4.20;;
21567;SDS011;10944;42.590;12.630;2023-04-24T02:59:55;12.80;;;4.18;;
21567;SDS011;10944;42.590;12.630;2023-04-24T03:02:21;12.35;;;4.00;;
21567;SDS011;10944;42.590;12.630;2023-04-24T03:04:47;11.80;;;3.78;;
21567;SDS011;10944;42.590;12.630;2023-04-24T03:07:15;16.08;;;3.67;;
21567;SDS011;10944;42.590;12.630;2023-04-24T03:09:41;16.30;;;4.25;;
21567;SDS011;10944;42.590;12.630;2023-04-24T03:12:07;12.70;;;4.10;;
21567;SDS011;10944;42.590;12.630;2023-04-24T03:14:33;15.38;;;3.70;;
21567;SDS011;10944;42.590;12.630;2023-04-24T03:16:59;12.05;;;3.60;;
21567;SDS011;10944;42.590;12.630;2023-04-24T03:19:25;9.73;;;3.70;;
21567;SDS011;10944;42.590;12.630;2023-04-24T03:21:52;17.05;;;4.28;;
21567;SDS011;10944;42.590;12.630;2023-04-24T03:24:17;14.82;;;3.58;;
21567;SDS011;10944;42.590;12.630;2023-04-24T03:26:43;14.35;;;3.63;;
21567;SDS011;10944;42.590;12.630;2023-04-24T03:29:09;13.77;;;3.67;;
21567;SDS011;10944;42.590;12.630;2023-04-24T03:31:34;10.65;;;3.85;;
21567;SDS011;10944;42.590;12.630;2023-04-24T03:34:00;12.85;;;4.05;;
21567;SDS011;10944;42.590;12.630;2023-04-24T03:36:26;11.68;;;3.63;;
21567;SDS011;10944;42.590;12.630;2023-04-24T03:38:52;13.90;;;3.92;;
21567;SDS011;10944;42.590;12.630;2023-04-24T03:41:18;15.48;;;3.88;;
21567;SDS011;10944;42.590;12.630;2023-04-24T03:43:44;12.07;;;3.90;;
21567;SDS011;10944;42.590;12.630;2023-04-24T03:46:10;14.82;;;4.07;;
21567;SDS011;10944;42.590;12.630;2023-04-24T03:48:35;11.70;;;4.00;;
21567;SDS011;10944;42.590;12.630;2023-04-24T03:51:01;9.77;;;4.07;;
21567;SDS011;10944;42.590;12.630;2023-04-24T03:53:27;9.82;;;4.32;;
21567;SDS011;10944;42.590;12.630;2023-04-24T03:55:53;13.35;;;4.10;;
21567;SDS011;10944;42.590;12.630;2023-04-24T03:58:18;15.18;;;4.40;;
21567;SDS011;10944;42.590;12.630;2023-04-24T04:00:44;11.27;;;4.25;;
21567;SDS011;10944;42.590;12.630;2023-04-24T04:03:13;13.70;;;4.28;;
21567;SDS011;10944;42.590;12.630;2023-04-24T04:05:39;10.55;;;4.20;;
21567;SDS011;10944;42.590;12.630;2023-04-24T04:08:05;15.50;;;4.18;;
21567;SDS011;10944;42.590;12.630;2023-04-24T04:10:31;10.75;;;4.53;;
21567;SDS011;10944;42.590;12.630;2023-04-24T04:12:56;10.75;;;4.32;;
21567;SDS011;10944;42.590;12.630;2023-04-24T04:15:22;12.77;;;4.22;;
21567;SDS011;10944;42.590;12.630;2023-04-24T04:17:48;10.82;;;4.25;;
21567;SDS011;10944;42.590;12.630;2023-04-24T04:20:14;15.05;;;4.53;;
21567;SDS011;10944;42.590;12.630;2023-04-24T04:22:40;12.02;;;4.30;;
21567;SDS011;10944;42.590;12.630;2023-04-24T04:25:06;13.43;;;3.85;;
21567;SDS011;10944;42.590;12.630;2023-04-24T04:27:32;12.98;;;4.55;;
21567;SDS011;10944;42.590;12.630;2023-04-24T04:29:59;15.20;;;4.18;;
21567;SDS011;10944;42.590;12.630;2023-04-24T04:32:32;14.88;;;4.30;;
21567;SDS011;10944;42.590;12.630;2023-04-24T04:35:02;11.65;;;4.10;;
21567;SDS011;10944;42.590;12.630;2023-04-24T04:37:32;13.50;;;4.53;;
21567;SDS011;10944;42.590;12.630;2023-04-24T04:39:58;12.32;;;4.25;;
21567;SDS011;10944;42.590;12.630;2023-04-24T04:42:28;12.57;;;4.70;;
21567;SDS011;10944;42.590;12.630;2023-04-24T04:44:54;10.93;;;4.30;;
21567;SDS011;10944;42.590;12.630;2023-04-24T04:47:21;15.48;;;4.80;;
21567;SDS011;10944;42.590;12.630;2023-04-24T04:49:48;11.95;;;4.65;;
21567;SDS011;10944;42.590;12.630;2023-04-24T04:52:14;11.27;;;3.80;;
21567;SDS011;10944;42.590;12.630;2023-04-24T04:54:41;14.52;;;4.60;;
21567;SDS011;10944;42.590;12.630;2023-04-24T04:57:07;13.50;;;5.22;;
21567;SDS011;10944;42.590;12.630;2023-04-24T04:59:34;14.63;;;4.50;;
21567;SDS011;10944;42.590;12.630;2023-04-24T05:02:00;12.00;;;4.60;;
21567;SDS011;10944;42.590;12.630;2023-04-24T05:04:25;11.88;;;4.28;;
21567;SDS011;10944;42.590;12.630;2023-04-24T05:06:51;12.60;;;4.53;;
21567;SDS011;10944;42.590;12.630;2023-04-24T05:09:17;13.35;;;4.38;;
21567;SDS011;10944;42.590;12.630;2023-04-24T05:11:43;15.38;;;4.72;;
21567;SDS011;10944;42.590;12.630;2023-04-24T05:14:09;15.40;;;4.85;;
21567;SDS011;10944;42.590;12.630;2023-04-24T05:16:35;12.73;;;5.30;;
21567;SDS011;10944;42.590;12.630;2023-04-24T05:19:02;13.38;;;5.88;;
21567;SDS011;10944;42.590;12.630;2023-04-24T05:21:28;17.80;;;9.00;;
21567;SDS011;10944;42.590;12.630;2023-04-24T05:23:54;15.43;;;6.88;;
21567;SDS011;10944;42.590;12.630;2023-04-24T05:26:20;17.98;;;6.05;;
21567;SDS011;10944;42.590;12.630;2023-04-24T05:28:45;20.20;;;6.50;;
21567;SDS011;10944;42.590;12.630;2023-04-24T05:31:11;16.50;;;6.70;;
21567;SDS011;10944;42.590;12.630;2023-04-24T05:33:37;17.17;;;6.72;;
21567;SDS011;10944;42.590;12.630;2023-04-24T05:36:03;11.02;;;6.22;;
21567;SDS011;10944;42.590;12.630;2023-04-24T05:38:30;19.33;;;6.60;;
21567;SDS011;10944;42.590;12.630;2023-04-24T05:40:56;20.35;;;6.70;;
21567;SDS011;10944;42.590;12.630;2023-04-24T05:43:21;19.92;;;7.10;;
21567;SDS011;10944;42.590;12.630;2023-04-24T05:45:47;23.42;;;7.43;;
21567;SDS011;10944;42.590;12.630;2023-04-24T05:48:13;19.73;;;7.18;;
21567;SDS011;10944;42.590;12.630;2023-04-24T05:50:38;21.98;;;6.88;;
21567;SDS011;10944;42.590;12.630;2023-04-24T05:53:05;22.08;;;7.80;;
21567;SDS011;10944;42.590;12.630;2023-04-24T05:55:32;17.25;;;8.15;;
21567;SDS011;10944;42.590;12.630;2023-04-24T05:57:57;21.15;;;8.65;;
21567;SDS011;10944;42.590;12.630;2023-04-24T06:00:23;22.02;;;8.68;;
21567;SDS011;10944;42.590;12.630;2023-04-24T06:02:50;20.20;;;9.32;;
21567;SDS011;10944;42.590;12.630;2023-04-24T06:05:17;18.58;;;8.55;;
21567;SDS011;10944;42.590;12.630;2023-04-24T06:07:43;15.50;;;7.50;;
21567;SDS011;10944;42.590;12.630;2023-04-24T06:10:09;18.67;;;8.57;;
21567;SDS011;10944;42.590;12.630;2023-04-24T06:12:35;24.73;;;8.07;;
21567;SDS011;10944;42.590;12.630;2023-04-24T06:15:01;20.33;;;8.40;;
21567;SDS011;10944;42.590;12.630;2023-04-24T06:17:28;18.52;;;8.57;;
21567;SDS011;10944;42.590;12.630;2023-04-24T06:19:53;16.60;;;8.27;;
21567;SDS011;10944;42.590;12.630;2023-04-24T06:22:19;22.63;;;9.20;;
21567;SDS011;10944;42.590;12.630;2023-04-24T06:24:45;21.83;;;10.55;;
21567;SDS011;10944;42.590;12.630;2023-04-24T06:27:12;19.63;;;9.65;;
21567;SDS011;10944;42.590;12.630;2023-04-24T06:29:37;27.25;;;11.10;;
21567;SDS011;10944;42.590;12.630;2023-04-24T06:32:03;21.20;;;9.68;;
21567;SDS011;10944;42.590;12.630;2023-04-24T06:34:29;18.98;;;8.77;;
21567;SDS011;10944;42.590;12.630;2023-04-24T06:36:55;19.50;;;9.40;;
21567;SDS011;10944;42.590;12.630;2023-04-24T06:39:21;17.73;;;8.93;;
21567;SDS011;10944;42.590;12.630;2023-04-24T06:41:47;21.15;;;8.98;;
21567;SDS011;10944;42.590;12.630;2023-04-24T06:44:13;17.75;;;8.90;;
21567;SDS011;10944;42.590;12.630;2023-04-24T06:46:39;20.45;;;8.27;;
21567;SDS011;10944;42.590;12.630;2023-04-24T06:49:06;17.13;;;7.57;;
21567;SDS011;10944;42.590;12.630;2023-04-24T06:51:31;18.80;;;7.75;;
21567;SDS011;10944;42.590;12.630;2023-04-24T06:53:58;13.95;;;7.72;;
21567;SDS011;10944;42.590;12.630;2023-04-24T06:56:24;13.48;;;7.47;;
21567;SDS011;10944;42.590;12.630;2023-04-24T06:58:51;16.75;;;8.00;;
21567;SDS011;10944;42.590;12.630;2023-04-24T07:01:18;13.95;;;7.18;;
21567;SDS011;10944;42.590;12.630;2023-04-24T07:03:44;14.55;;;6.90;;
21567;SDS011;10944;42.590;12.630;2023-04-24T07:06:09;14.65;;;6.30;;
21567;SDS011;10944;42.590;12.630;2023-04-24T07:08:39;16.52;;;7.57;;
21567;SDS011;10944;42.590;12.630;2023-04-24T07:11:06;16.20;;;8.13;;
21567;SDS011;10944;42.590;12.630;2023-04-24T07:13:32;14.73;;;9.68;;
21567;SDS011;10944;42.590;12.630;2023-04-24T07:16:00;13.95;;;7.38;;
21567;SDS011;10944;42.590;12.630;2023-04-24T07:18:26;12.88;;;5.40;;
21567;SDS011;10944;42.590;12.630;2023-04-24T07:20:51;9.88;;;5.93;;
21567;SDS011;10944;42.590;12.630;2023-04-24T07:23:17;14.43;;;7.70;;
21567;SDS011;10944;42.590;12.630;2023-04-24T07:25:43;15.35;;;8.10;;
21567;SDS011;10944;42.590;12.630;2023-04-24T07:28:09;17.73;;;6.38;;
21567;SDS011;10944;42.590;12.630;2023-04-24T07:30:35;12.15;;;5.90;;
21567;SDS011;10944;42.590;12.630;2023-04-24T07:33:00;14.57;;;5.88;;
21567;SDS011;10944;42.590;12.630;2023-04-24T07:35:26;12.85;;;6.05;;
21567;SDS011;10944;42.590;12.630;2023-04-24T07:37:55;11.43;;;5.93;;
21567;SDS011;10944;42.590;12.630;2023-04-24T07:40:21;15.50;;;6.43;;
21567;SDS011;10944;42.590;12.630;2023-04-24T07:42:47;14.70;;;6.68;;
21567;SDS011;10944;42.590;12.630;2023-04-24T07:45:16;12.95;;;6.97;;
21567;SDS011;10944;42.590;12.630;2023-04-24T07:47:41;12.95;;;7.30;;
21567;SDS011;10944;42.590;12.630;2023-04-24T07:50:11;19.58;;;9.80;;
21567;SDS011;10944;42.590;12.630;2023-04-24T07:52:40;13.07;;;7.25;;
21567;SDS011;10944;42.590;12.630;2023-04-24T07:55:06;16.27;;;6.30;;
21567;SDS011;10944;42.590;12.630;2023-04-24T07:57:32;16.38;;;6.00;;
21567;SDS011;10944;42.590;12.630;2023-04-24T07:59:57;12.70;;;5.60;;
21567;SDS011;10944;42.590;12.630;2023-04-24T08:02:23;14.18;;;5.75;;
21567;SDS011;10944;42.590;12.630;2023-04-24T08:04:54;13.45;;;5.90;;
21567;SDS011;10944;42.590;12.630;2023-04-24T08:07:20;11.98;;;5.97;;
21567;SDS011;10944;42.590;12.630;2023-04-24T08:09:46;14.20;;;5.93;;
21567;SDS011;10944;42.590;12.630;2023-04-24T08:12:12;13.10;;;6.00;;
21567;SDS011;10944;42.590;12.630;2023-04-24T08:14:38;14.05;;;5.50;;
21567;SDS011;10944;42.590;12.630;2023-04-24T08:17:03;11.95;;;6.05;;
21567;SDS011;10944;42.590;12.630;2023-04-24T08:19:29;17.10;;;6.70;;
21567;SDS011;10944;42.590;12.630;2023-04-24T08:21:55;16.02;;;6.50;;
21567;SDS011;10944;42.590;12.630;2023-04-24T08:24:21;16.17;;;6.68;;
21567;SDS011;10944;42.590;12.630;2023-04-24T08:26:47;13.00;;;6.07;;
21567;SDS011;10944;42.590;12.630;2023-04-24T08:29:18;11.40;;;6.28;;
21567;SDS011;10944;42.590;12.630;2023-04-24T08:31:44;10.52;;;5.70;;
21567;SDS011;10944;42.590;12.630;2023-04-24T08:34:10;16.10;;;6.03;;
21567;SDS011;10944;42.590;12.630;2023-04-24T08:36:36;14.90;;;5.80;;
21567;SDS011;10944;42.590;12.630;2023-04-24T08:39:02;11.65;;;5.40;;
21567;SDS011;10944;42.590;12.630;2023-04-24T08:41:28;10.00;;;5.22;;
21567;SDS011;10944;42.590;12.630;2023-04-24T08:43:55;15.98;;;5.30;;
21567;SDS011;10944;42.590;12.630;2023-04-24T08:46:23;11.75;;;5.78;;
21567;SDS011;10944;42.590;12.630;2023-04-24T08:48:50;12.60;;;6.38;;
21567;SDS011;10944;42.590;12.630;2023-04-24T08:51:17;14.93;;;6.30;;
21567;SDS011;10944;42.590;12.630;2023-04-24T08:53:43;13.27;;;6.30;;
21567;SDS011;10944;42.590;12.630;2023-04-24T08:56:10;15.38;;;6.20;;
21567;SDS011;10944;42.590;12.630;2023-04-24T08:58:37;11.57;;;5.70;;
21567;SDS011;10944;42.590;12.630;2023-04-24T09:01:03;12.68;;;5.90;;
21567;SDS011;10944;42.590;12.630;2023-04-24T09:03:30;14.52;;;5.63;;
21567;SDS011;10944;42.590;12.630;2023-04-24T09:05:57;14.57;;;6.13;;
21567;SDS011;10944;42.590;12.630;2023-04-24T09:08:25;10.95;;;5.53;;
21567;SDS011;10944;42.590;12.630;2023-04-24T09:10:53;13.43;;;6.45;;
21567;SDS011;10944;42.590;12.630;2023-04-24T09:13:19;14.30;;;6.72;;
21567;SDS011;10944;42.590;12.630;2023-04-24T09:15:45;13.57;;;7.00;;
21567;SDS011;10944;42.590;12.630;2023-04-24T09:18:11;14.90;;;6.43;;
21567;SDS011;10944;42.590;12.630;2023-04-24T09:23:26;16.05;;;6.38;;
21567;SDS011;10944;42.590;12.630;2023-04-24T09:25:57;16.02;;;5.93;;
21567;SDS011;10944;42.590;12.630;2023-04-24T09:28:29;13.32;;;5.82;;
21567;SDS011;10944;42.590;12.630;2023-04-24T09:31:04;12.23;;;6.07;;
21567;SDS011;10944;42.590;12.630;2023-04-24T09:33:29;13.18;;;5.30;;
21567;SDS011;10944;42.590;12.630;2023-04-24T09:35:55;13.73;;;5.35;;
21567;SDS011;10944;42.590;12.630;2023-04-24T09:38:34;15.45;;;4.85;;
21567;SDS011;10944;42.590;12.630;2023-04-24T09:41:07;10.68;;;4.43;;
21567;SDS011;10944;42.590;12.630;2023-04-24T09:43:34;12.27;;;5.43;;
21567;SDS011;10944;42.590;12.630;2023-04-24T09:46:04;10.48;;;5.20;;
21567;SDS011;10944;42.590;12.630;2023-04-24T09:48:32;13.85;;;5.18;;
21567;SDS011;10944;42.590;12.630;2023-04-24T09:51:00;11.85;;;6.03;;
21567;SDS011;10944;42.590;12.630;2023-04-24T09:53:26;10.88;;;5.28;;
21567;SDS011;10944;42.590;12.630;2023-04-24T09:55:53;20.25;;;6.95;;
21567;SDS011;10944;42.590;12.630;2023-04-24T09:58:24;14.10;;;6.07;;
21567;SDS011;10944;42.590;12.630;2023-04-24T10:00:53;14.68;;;6.93;;
21567;SDS011;10944;42.590;12.630;2023-04-24T10:03:20;24.48;;;7.38;;
21567;SDS011;10944;42.590;12.630;2023-04-24T10:05:46;14.07;;;7.00;;
21567;SDS011;10944;42.590;12.630;2023-04-24T10:08:12;13.75;;;6.43;;
21567;SDS011;10944;42.590;12.630;2023-04-24T10:10:40;14.63;;;6.40;;
21567;SDS011;10944;42.590;12.630;2023-04-24T10:13:10;12.05;;;5.80;;
21567;SDS011;10944;42.590;12.630;2023-04-24T10:15:37;13.52;;;5.57;;
21567;SDS011;10944;42.590;12.630;2023-04-24T10:18:07;14.52;;;6.03;;
21567;SDS011;10944;42.590;12.630;2023-04-24T10:20:34;12.80;;;5.57;;
21567;SDS011;10944;42.590;12.630;2023-04-24T10:23:01;12.73;;;5.40;;
21567;SDS011;10944;42.590;12.630;2023-04-24T10:25:32;12.95;;;5.90;;
21567;SDS011;10944;42.590;12.630;2023-04-24T10:28:00;12.07;;;6.00;;
21567;SDS011;10944;42.590;12.630;2023-04-24T10:30:27;11.93;;;5.35;;
21567;SDS011;10944;42.590;12.630;2023-04-24T10:32:55;13.38;;;5.90;;
21567;SDS011;10944;42.590;12.630;2023-04-24T10:35:21;13.95;;;5.75;;
21567;SDS011;10944;42.590;12.630;2023-04-24T10:37:52;15.45;;;5.35;;
21567;SDS011;10944;42.590;12.630;2023-04-24T10:40:40;9.95;;;4.93;;
21567;SDS011;10944;42.590;12.630;2023-04-24T10:43:08;12.20;;;5.35;;
21567;SDS011;10944;42.590;12.630;2023-04-24T10:45:37;15.07;;;5.50;;
21567;SDS011;10944;42.590;12.630;2023-04-24T10:48:04;14.25;;;5.40;;
21567;SDS011;10944;42.590;12.630;2023-04-24T10:53:27;16.13;;;5.03;;
21567;SDS011;10944;42.590;12.630;2023-04-24T10:58:40;12.73;;;5.05;;
21567;SDS011;10944;42.590;12.630;2023-04-24T11:03:54;15.65;;;5.80;;
21567;SDS011;10944;42.590;12.630;2023-04-24T11:06:36;12.88;;;5.57;;
21567;SDS011;10944;42.590;12.630;2023-04-24T11:09:06;12.07;;;5.28;;
21567;SDS011;10944;42.590;12.630;2023-04-24T11:11:34;14.40;;;5.78;;
21567;SDS011;10944;42.590;12.630;2023-04-24T11:14:01;10.45;;;5.03;;
21567;SDS011;10944;42.590;12.630;2023-04-24T11:16:35;15.02;;;6.07;;
21567;SDS011;10944;42.590;12.630;2023-04-24T11:22:02;10.75;;;4.97;;
21567;SDS011;10944;42.590;12.630;2023-04-24T11:24:39;14.00;;;5.32;;
21567;SDS011;10944;42.590;12.630;2023-04-24T11:27:17;13.55;;;5.47;;
21567;SDS011;10944;42.590;12.630;2023-04-24T11:35:07;13.52;;;4.50;;
21567;SDS011;10944;42.590;12.630;2023-04-24T11:37:43;12.80;;;4.72;;
21567;SDS011;10944;42.590;12.630;2023-04-24T11:40:16;13.57;;;4.97;;
21567;SDS011;10944;42.590;12.630;2023-04-24T11:42:45;13.13;;;5.40;;
21567;SDS011;10944;42.590;12.630;2023-04-24T11:45:20;20.95;;;5.75;;
21567;SDS011;10944;42.590;12.630;2023-04-24T11:47:47;15.82;;;5.22;;
21567;SDS011;10944;42.590;12.630;2023-04-24T11:50:14;11.15;;;3.55;;
21567;SDS011;10944;42.590;12.630;2023-04-24T11:52:42;7.60;;;3.28;;
21567;SDS011;10944;42.590;12.630;2023-04-24T11:57:53;9.30;;;3.55;;
21567;SDS011;10944;42.590;12.630;2023-04-24T12:02:48;12.65;;;3.90;;
21567;SDS011;10944;42.590;12.630;2023-04-24T12:05:25;13.75;;;4.68;;
21567;SDS011;10944;42.590;12.630;2023-04-24T12:07:52;12.93;;;4.30;;
21567;SDS011;10944;42.590;12.630;2023-04-24T12:10:21;12.07;;;4.38;;
21567;SDS011;10944;42.590;12.630;2023-04-24T12:12:48;15.88;;;4.78;;
21567;SDS011;10944;42.590;12.630;2023-04-24T12:15:16;14.57;;;4.68;;
21567;SDS011;10944;42.590;12.630;2023-04-24T12:17:43;16.27;;;5.30;;
21567;SDS011;10944;42.590;12.630;2023-04-24T12:20:09;16.25;;;4.70;;
21567;SDS011;10944;42.590;12.630;2023-04-24T12:22:46;9.70;;;4.40;;
21567;SDS011;10944;42.590;12.630;2023-04-24T12:25:15;10.07;;;4.30;;
21567;SDS011;10944;42.590;12.630;2023-04-24T12:27:41;13.70;;;4.72;;
21567;SDS011;10944;42.590;12.630;2023-04-24T12:30:15;12.52;;;5.40;;
21567;SDS011;10944;42.590;12.630;2023-04-24T12:32:45;16.50;;;5.00;;
21567;SDS011;10944;42.590;12.630;2023-04-24T12:35:21;13.52;;;5.00;;
21567;SDS011;10944;42.590;12.630;2023-04-24T12:37:49;12.50;;;5.05;;
21567;SDS011;10944;42.590;12.630;2023-04-24T12:40:16;12.55;;;4.75;;
21567;SDS011;10944;42.590;12.630;2023-04-24T12:42:46;13.27;;;6.28;;
21567;SDS011;10944;42.590;12.630;2023-04-24T12:45:16;14.75;;;5.35;;
21567;SDS011;10944;42.590;12.630;2023-04-24T12:47:45;11.10;;;4.90;;
21567;SDS011;10944;42.590;12.630;2023-04-24T12:50:14;11.48;;;5.07;;
21567;SDS011;10944;42.590;12.630;2023-04-24T12:52:41;16.23;;;5.65;;
21567;SDS011;10944;42.590;12.630;2023-04-24T12:55:07;13.30;;;5.40;;
21567;SDS011;10944;42.590;12.630;2023-04-24T12:57:34;11.73;;;5.07;;
21567;SDS011;10944;42.590;12.630;2023-04-24T13:00:02;16.13;;;4.95;;
21567;SDS011;10944;42.590;12.630;2023-04-24T13:02:29;9.63;;;4.18;;
21567;SDS011;10944;42.590;12.630;2023-04-24T13:04:56;13.13;;;4.50;;
21567;SDS011;10944;42.590;12.630;2023-04-24T13:07:22;11.40;;;4.40;;
21567;SDS011;10944;42.590;12.630;2023-04-24T13:09:49;10.15;;;3.97;;
21567;SDS011;10944;42.590;12.630;2023-04-24T13:12:15;12.23;;;4.88;;
21567;SDS011;10944;42.590;12.630;2023-04-24T13:14:41;10.93;;;4.82;;
21567;SDS011;10944;42.590;12.630;2023-04-24T13:17:07;10.80;;;4.50;;
21567;SDS011;10944;42.590;12.630;2023-04-24T13:19:37;8.80;;;4.50;;
21567;SDS011;10944;42.590;12.630;2023-04-24T13:22:05;11.18;;;4.20;;
21567;SDS011;10944;42.590;12.630;2023-04-24T13:24:32;10.18;;;4.47;;
21567;SDS011;10944;42.590;12.630;2023-04-24T13:26:58;10.82;;;3.92;;
21567;SDS011;10944;42.590;12.630;2023-04-24T13:29:25;16.17;;;7.82;;
21567;SDS011;10944;42.590;12.630;2023-04-24T13:31:51;10.75;;;4.45;;
21567;SDS011;10944;42.590;12.630;2023-04-24T13:34:19;11.23;;;4.05;;
21567;SDS011;10944;42.590;12.630;2023-04-24T13:36:45;12.63;;;4.05;;
21567;SDS011;10944;42.590;12.630;2023-04-24T13:39:11;9.85;;;4.03;;
21567;SDS011;10944;42.590;12.630;2023-04-24T13:41:36;10.38;;;3.85;;
21567;SDS011;10944;42.590;12.630;2023-04-24T13:44:02;13.52;;;5.10;;
21567;SDS011;10944;42.590;12.630;2023-04-24T13:46:29;11.52;;;4.88;;
21567;SDS011;10944;42.590;12.630;2023-04-24T13:48:55;14.77;;;7.43;;
21567;SDS011;10944;42.590;12.630;2023-04-24T13:51:22;14.00;;;6.50;;
21567;SDS011;10944;42.590;12.630;2023-04-24T13:53:48;11.68;;;5.13;;
21567;SDS011;10944;42.590;12.630;2023-04-24T13:56:14;11.07;;;4.65;;
21567;SDS011;10944;42.590;12.630;2023-04-24T13:58:40;9.95;;;4.00;;
21567;SDS011;10944;42.590;12.630;2023-04-24T14:01:06;9.75;;;3.00;;
21567;SDS011;10944;42.590;12.630;2023-04-24T14:03:33;12.15;;;3.20;;
21567;SDS011;10944;42.590;12.630;2023-04-24T14:05:59;10.40;;;3.35;;
21567;SDS011;10944;42.590;12.630;2023-04-24T14:08:24;7.95;;;2.53;;
21567;SDS011;10944;42.590;12.630;2023-04-24T14:10:50;10.27;;;2.75;;
21567;SDS011;10944;42.590;12.630;2023-04-24T14:13:16;11.55;;;2.50;;
21567;SDS011;10944;42.590;12.630;2023-04-24T14:15:42;8.48;;;2.38;;
21567;SDS011;10944;42.590;12.630;2023-04-24T14:18:08;8.95;;;2.60;;
21567;SDS011;10944;42.590;12.630;2023-04-24T14:20:34;7.22;;;2.72;;
21567;SDS011;10944;42.590;12.630;2023-04-24T14:23:01;7.68;;;2.50;;
21567;SDS011;10944;42.590;12.630;2023-04-24T14:25:26;8.82;;;2.28;;
21567;SDS011;10944;42.590;12.630;2023-04-24T14:27:52;23.85;;;11.77;;
21567;SDS011;10944;42.590;12.630;2023-04-24T14:30:18;37.28;;;19.63;;
21567;SDS011;10944;42.590;12.630;2023-04-24T14:32:44;10.52;;;4.40;;
21567;SDS011;10944;42.590;12.630;2023-04-24T14:35:10;27.13;;;15.52;;
21567;SDS011;10944;42.590;12.630;2023-04-24T14:37:36;9.02;;;3.38;;
21567;SDS011;10944;42.590;12.630;2023-04-24T14:40:02;15.38;;;8.20;;
21567;SDS011;10944;42.590;12.630;2023-04-24T14:42:30;16.77;;;8.73;;
21567;SDS011;10944;42.590;12.630;2023-04-24T14:44:55;27.02;;;15.77;;
21567;SDS011;10944;42.590;12.630;2023-04-24T14:47:21;21.05;;;12.00;;